createdAt,value
2023-05-06T00:00:14.815Z,8.50
2023-05-06T00:02:44.231Z,8.60
2023-05-06T00:05:13.627Z,8.80
2023-05-06T00:07:43.946Z,8.90
2023-05-06T00:10:13.743Z,9.00
2023-05-06T00:12:43.135Z,9.20
2023-05-06T00:15:13.139Z,9.30
2023-05-06T00:17:42.526Z,9.50
2023-05-06T00:20:12.497Z,9.50
2023-05-06T00:22:41.925Z,9.50
2023-05-06T00:25:11.817Z,9.60
2023-05-06T00:27:41.260Z,9.70
2023-05-06T00:30:10.973Z,9.80
2023-05-06T00:32:40.900Z,9.90
2023-05-06T00:35:10.922Z,10.00
2023-05-06T00:58:29.501Z,10.80
2023-05-06T01:00:59.310Z,10.90
2023-05-06T01:03:29.376Z,11.10
2023-05-06T01:06:18.751Z,11.20
2023-05-06T01:08:51.636Z,11.30
2023-05-06T01:11:47.138Z,11.50
2023-05-06T01:14:26.547Z,11.60
2023-05-06T01:16:57.598Z,11.80
2023-05-06T01:19:40.724Z,11.90
2023-05-06T01:22:10.780Z,12.10
2023-05-06T01:24:41.487Z,12.10
2023-05-06T01:27:12.072Z,12.30
2023-05-06T01:29:43.809Z,12.30
2023-05-06T01:32:19.867Z,12.40
2023-05-06T01:34:52.888Z,12.50
2023-05-06T01:37:42.619Z,12.70
2023-05-06T01:40:12.449Z,12.70
2023-05-06T01:42:42.626Z,12.80
2023-05-06T01:45:13.595Z,12.90
2023-05-06T01:47:43.792Z,13.10
2023-05-06T01:50:13.976Z,13.20
2023-05-06T01:52:43.932Z,13.30
2023-05-06T01:55:13.742Z,13.30
2023-05-06T02:11:33.623Z,13.80
2023-05-06T02:14:04.001Z,13.90
2023-05-06T02:16:33.950Z,14.00
2023-05-06T02:19:03.387Z,14.10
2023-05-06T02:21:34.662Z,14.20
2023-05-06T02:24:04.074Z,14.30
2023-05-06T02:26:33.442Z,14.40
2023-05-06T02:29:02.823Z,14.40
2023-05-06T02:31:32.692Z,14.50
2023-05-06T02:34:02.083Z,14.60
2023-05-06T02:36:35.110Z,14.60
2023-05-06T02:39:04.892Z,14.70
2023-05-06T02:41:34.339Z,14.80
2023-05-06T02:44:03.826Z,14.80
2023-05-06T02:46:33.223Z,14.90
2023-05-06T02:49:02.960Z,14.90
2023-05-06T02:51:32.867Z,14.90
2023-05-06T02:54:02.282Z,15.00
2023-05-06T02:56:31.884Z,15.00
2023-05-06T02:59:01.284Z,15.00
2023-05-06T03:01:30.725Z,15.00
2023-05-06T03:04:00.171Z,15.10
2023-05-06T03:06:29.616Z,15.30
2023-05-06T03:08:59.379Z,15.30
2023-05-06T03:11:28.852Z,15.40
2023-05-06T03:13:58.268Z,15.40
2023-05-06T03:16:28.177Z,15.50
2023-05-06T03:18:57.677Z,15.60
2023-05-06T03:21:27.792Z,15.70
2023-05-06T03:23:57.310Z,15.70
2023-05-06T03:26:26.750Z,15.80
2023-05-06T03:28:56.525Z,15.80
2023-05-06T03:31:26.005Z,15.90
2023-05-06T03:33:55.435Z,16.20
2023-05-06T03:36:27.428Z,16.20
2023-05-06T03:38:56.994Z,15.90
2023-05-06T03:41:26.717Z,15.80
2023-05-06T03:43:57.571Z,15.70
2023-05-06T03:46:26.999Z,15.70
2023-05-06T03:48:56.482Z,15.80
2023-05-06T03:51:25.926Z,16.00
2023-05-06T03:53:55.378Z,16.10
2023-05-06T03:56:24.847Z,16.20
2023-05-06T03:58:55.988Z,16.20
2023-05-06T04:01:25.394Z,16.20
2023-05-06T04:03:56.136Z,16.20
2023-05-06T04:06:25.634Z,16.10
2023-05-06T04:08:55.128Z,16.10
2023-05-06T04:11:24.544Z,16.00
2023-05-06T04:13:54.351Z,16.10
2023-05-06T04:16:23.791Z,16.00
2023-05-06T04:18:53.436Z,16.00
2023-05-06T04:21:22.987Z,16.10
2023-05-06T04:23:52.475Z,16.00
2023-05-06T04:26:21.946Z,16.10
2023-05-06T04:28:51.404Z,16.10
2023-05-06T04:31:20.852Z,16.10
2023-05-06T04:33:50.287Z,16.00
2023-05-06T04:36:20.524Z,15.90
2023-05-06T04:38:49.924Z,15.80
2023-05-06T04:41:19.301Z,15.60
2023-05-06T04:43:48.905Z,15.40
2023-05-06T04:46:18.764Z,15.30
2023-05-06T04:48:48.323Z,15.20
2023-05-06T04:51:17.719Z,15.30
2023-05-06T04:53:47.143Z,15.40
2023-05-06T04:56:16.511Z,15.50
2023-05-06T04:58:45.868Z,15.30
2023-05-06T05:01:15.306Z,15.20
2023-05-06T05:03:44.877Z,14.90
2023-05-06T05:06:15.692Z,14.80
2023-05-06T05:08:45.063Z,14.80
2023-05-06T05:11:15.309Z,14.80
2023-05-06T05:13:44.679Z,14.90
2023-05-06T05:16:14.102Z,15.10
2023-05-06T05:18:43.518Z,15.10
2023-05-06T05:21:12.949Z,15.00
2023-05-06T05:23:42.356Z,14.90
2023-05-06T05:26:12.395Z,14.80
2023-05-06T05:28:41.931Z,14.80
2023-05-06T05:31:11.307Z,14.80
2023-05-06T05:33:40.715Z,14.70
2023-05-06T05:36:10.927Z,14.60
2023-05-06T05:38:40.273Z,14.80
2023-05-06T05:41:09.655Z,14.80
2023-05-06T05:43:40.149Z,14.90
2023-05-06T05:46:10.123Z,15.00
2023-05-06T05:48:41.719Z,15.00
2023-05-06T05:51:11.210Z,14.80
2023-05-06T05:53:40.610Z,14.70
2023-05-06T05:56:11.201Z,14.60
2023-05-06T05:58:41.602Z,14.50
2023-05-06T06:01:11.063Z,14.30
2023-05-06T06:03:41.022Z,14.30
2023-05-06T06:06:11.492Z,14.10
2023-05-06T06:08:41.148Z,14.00
2023-05-06T06:11:11.616Z,14.00
2023-05-06T06:13:41.395Z,13.90
2023-05-06T06:16:10.972Z,13.80
2023-05-06T06:18:41.431Z,13.80
2023-05-06T06:21:11.338Z,13.70
2023-05-06T06:23:41.122Z,13.70
2023-05-06T06:26:12.342Z,13.60
2023-05-06T06:28:43.355Z,13.60
2023-05-06T06:31:13.455Z,13.50
2023-05-06T06:33:43.282Z,13.50
2023-05-06T06:36:13.375Z,13.50
2023-05-06T06:38:44.088Z,13.40
2023-05-06T06:41:13.474Z,13.50
2023-05-06T06:43:43.233Z,13.40
2023-05-06T06:46:13.092Z,13.40
2023-05-06T06:48:43.828Z,13.40
2023-05-06T06:51:14.389Z,13.30
2023-05-06T06:53:44.908Z,13.20
2023-05-06T06:56:15.421Z,13.20
2023-05-06T06:58:44.895Z,13.10
2023-05-06T07:01:15.166Z,13.10
2023-05-06T07:03:44.570Z,13.00
2023-05-06T07:06:14.550Z,13.00
2023-05-06T07:08:43.985Z,12.90
2023-05-06T07:11:14.296Z,12.90
2023-05-06T07:13:43.648Z,12.80
2023-05-06T07:16:14.148Z,12.80
2023-05-06T07:18:43.934Z,12.70
2023-05-06T07:21:13.482Z,12.70
2023-05-06T07:23:42.952Z,12.60
2023-05-06T07:26:12.353Z,12.60
2023-05-06T07:28:41.940Z,12.60
2023-05-06T07:31:11.326Z,12.50
2023-05-06T07:33:41.112Z,12.50
2023-05-06T07:36:10.997Z,12.50
2023-05-06T07:38:40.352Z,12.50
2023-05-06T07:41:09.727Z,12.40
2023-05-06T07:43:39.542Z,12.40
2023-05-06T07:46:09.016Z,12.40
2023-05-06T07:48:38.395Z,12.40
2023-05-06T07:51:08.229Z,12.30
2023-05-06T07:53:42.195Z,12.30
2023-05-06T07:56:11.589Z,12.30
2023-05-06T07:58:40.932Z,12.30
2023-05-06T08:01:10.761Z,12.20
2023-05-06T08:03:40.392Z,12.20
2023-05-06T08:06:10.057Z,12.20
2023-05-06T08:08:40.741Z,12.10
2023-05-06T08:11:10.660Z,12.10
2023-05-06T08:13:40.458Z,12.10
2023-05-06T08:16:10.567Z,12.10
2023-05-06T08:18:40.371Z,12.00
2023-05-06T08:21:09.857Z,12.00
2023-05-06T08:23:39.827Z,12.00
2023-05-06T08:26:09.610Z,11.90
2023-05-06T08:28:39.503Z,11.80
2023-05-06T08:31:08.931Z,11.80
2023-05-06T08:33:38.279Z,11.80
2023-05-06T08:36:07.887Z,11.80
2023-05-06T08:38:37.247Z,11.90
2023-05-06T08:41:11.573Z,11.90
2023-05-06T08:43:46.166Z,11.80
2023-05-06T08:46:19.749Z,11.80
2023-05-06T08:48:49.121Z,11.80
2023-05-06T08:51:18.705Z,11.80
2023-05-06T08:53:50.228Z,11.80
2023-05-06T08:56:21.720Z,11.80
2023-05-06T08:58:53.056Z,11.80
2023-05-06T09:01:22.470Z,11.80
2023-05-06T09:03:52.317Z,11.80
2023-05-06T09:06:22.742Z,11.80
2023-05-06T09:08:52.228Z,11.80
2023-05-06T09:11:34.395Z,11.80
2023-05-06T09:14:11.683Z,11.80
2023-05-06T09:16:41.933Z,11.70
2023-05-06T09:19:11.465Z,11.70
2023-05-06T09:21:48.215Z,11.70
2023-05-06T09:24:18.981Z,11.70
2023-05-06T09:26:49.200Z,11.70
2023-05-06T09:29:18.644Z,11.70
2023-05-06T09:31:49.034Z,11.60
2023-05-06T09:34:19.674Z,11.60
2023-05-06T09:36:49.201Z,11.60
2023-05-06T09:39:19.644Z,11.60
2023-05-06T09:41:49.461Z,11.50
2023-05-06T09:44:20.101Z,11.50
2023-05-06T09:46:50.572Z,11.50
2023-05-06T09:49:19.967Z,11.50
2023-05-06T09:51:53.685Z,11.50
2023-05-06T09:54:23.234Z,11.50
2023-05-06T09:56:53.410Z,11.50
2023-05-06T09:59:24.379Z,11.50
2023-05-06T10:01:55.144Z,11.50
2023-05-06T10:04:26.451Z,11.40
2023-05-06T10:07:01.858Z,11.40
2023-05-06T10:09:33.629Z,11.40
2023-05-06T10:12:05.168Z,11.30
2023-05-06T10:14:35.611Z,11.30
2023-05-06T10:17:10.380Z,11.30
2023-05-06T10:19:42.401Z,11.20
2023-05-06T10:22:30.007Z,11.20
2023-05-06T10:25:09.193Z,11.10
2023-05-06T10:27:42.642Z,11.00
2023-05-06T10:30:12.949Z,10.90
2023-05-06T10:32:44.744Z,11.00
2023-05-06T10:35:23.915Z,10.80
2023-05-06T10:37:54.495Z,10.90
2023-05-06T10:40:24.944Z,10.90
2023-05-06T10:42:54.294Z,10.80
2023-05-06T10:45:23.680Z,10.80
2023-05-06T10:47:59.082Z,10.80
2023-05-06T10:50:29.591Z,10.80
2023-05-06T10:53:03.416Z,10.70
2023-05-06T10:55:34.862Z,10.70
2023-05-06T10:58:13.312Z,10.60
2023-05-06T11:00:42.956Z,10.60
2023-05-06T11:03:16.028Z,10.60
2023-05-06T11:05:52.119Z,10.50
2023-05-06T11:08:25.074Z,10.60
2023-05-06T11:10:55.170Z,10.50
2023-05-06T11:13:32.024Z,10.50
2023-05-06T11:16:03.554Z,10.50
2023-05-06T11:18:36.386Z,10.50
2023-05-06T11:21:05.942Z,10.50
2023-05-06T11:23:45.403Z,10.50
2023-05-06T11:26:15.789Z,10.50
2023-05-06T11:28:46.003Z,10.50
2023-05-06T11:31:16.461Z,10.50
2023-05-06T11:33:49.809Z,10.50
2023-05-06T11:36:21.334Z,10.50
2023-05-06T11:38:51.323Z,10.50
2023-05-06T11:41:21.257Z,10.50
2023-05-06T11:43:54.077Z,10.50
2023-05-06T11:46:24.784Z,10.40
2023-05-06T11:48:54.154Z,10.40
2023-05-06T11:51:27.641Z,10.40
2023-05-06T11:54:06.911Z,10.40
2023-05-06T11:56:49.144Z,10.40
2023-05-06T11:59:20.457Z,10.40
2023-05-06T12:01:49.812Z,10.40
2023-05-06T12:04:19.595Z,10.40
2023-05-06T12:06:49.070Z,10.40
2023-05-06T12:09:18.707Z,10.40
2023-05-06T12:11:49.328Z,10.30
2023-05-06T12:14:18.939Z,10.30
2023-05-06T12:16:48.609Z,10.30
2023-05-06T12:19:19.445Z,10.20
2023-05-06T12:21:48.891Z,10.30
2023-05-06T12:24:28.523Z,10.30
2023-05-06T12:26:58.242Z,10.30
2023-05-06T12:29:27.651Z,10.30
2023-05-06T12:32:12.986Z,10.30
2023-05-06T12:34:43.139Z,10.30
2023-05-06T12:37:12.542Z,10.30
2023-05-06T12:39:43.611Z,10.30
2023-05-06T12:42:21.624Z,10.30
2023-05-06T12:44:52.235Z,10.30
2023-05-06T12:47:23.729Z,10.30
2023-05-06T12:49:55.252Z,10.30
2023-05-06T12:52:26.903Z,10.30
2023-05-06T12:54:56.858Z,10.30
2023-05-06T12:57:27.259Z,10.30
2023-05-06T12:59:57.845Z,10.20
2023-05-06T13:02:27.250Z,10.20
2023-05-06T13:04:56.672Z,10.20
2023-05-06T13:07:27.112Z,10.10
2023-05-06T13:09:56.841Z,10.10
2023-05-06T13:12:26.678Z,10.10
2023-05-06T13:14:56.058Z,10.10
2023-05-06T13:17:25.958Z,10.10
2023-05-06T13:19:55.600Z,10.10
2023-05-06T13:22:25.968Z,10.10
2023-05-06T13:24:55.739Z,10.10
2023-05-06T13:27:25.080Z,10.10
2023-05-06T13:29:54.411Z,10.00
2023-05-06T13:32:23.878Z,10.10
2023-05-06T13:34:53.269Z,10.10
2023-05-06T13:37:22.716Z,10.10
2023-05-06T13:39:52.308Z,10.10
2023-05-06T13:42:21.670Z,10.10
2023-05-06T13:44:51.029Z,10.10
2023-05-06T13:47:20.401Z,10.10
2023-05-06T13:49:51.328Z,10.10
2023-05-06T13:52:21.342Z,10.10
2023-05-06T13:54:51.174Z,10.10
2023-05-06T14:13:17.087Z,10.00
2023-05-06T14:15:46.938Z,10.10
2023-05-06T14:18:17.603Z,10.00
2023-05-06T14:20:46.989Z,10.00
2023-05-06T14:23:16.396Z,10.00
2023-05-06T14:25:46.181Z,9.90
2023-05-06T14:28:17.270Z,9.90
2023-05-06T14:30:47.683Z,9.90
2023-05-06T14:33:17.064Z,9.90
2023-05-06T14:35:48.425Z,9.80
2023-05-06T14:38:18.681Z,9.80
2023-05-06T14:40:48.061Z,9.80
2023-05-06T14:43:17.440Z,9.80
2023-05-06T14:45:46.954Z,9.80
2023-05-06T14:48:16.960Z,9.80
2023-05-06T14:50:46.366Z,9.80
2023-05-06T14:53:16.219Z,9.80
2023-05-06T14:55:48.153Z,9.80
2023-05-06T14:58:17.899Z,9.80
2023-05-06T15:00:47.477Z,9.80
2023-05-06T15:03:17.234Z,9.80
2023-05-06T15:05:47.902Z,9.80
2023-05-06T15:08:18.294Z,9.80
2023-05-06T15:10:48.182Z,9.80
2023-05-06T15:13:17.878Z,9.80
2023-05-06T15:15:48.250Z,9.70
2023-05-06T15:18:17.792Z,9.70
2023-05-06T15:20:47.554Z,9.80
2023-05-06T15:23:16.909Z,9.70
2023-05-06T15:25:46.409Z,9.80
2023-05-06T15:28:16.794Z,9.70
2023-05-06T15:30:46.169Z,9.70
2023-05-06T15:33:15.685Z,9.70
2023-05-06T15:35:45.036Z,9.80
2023-05-06T15:38:14.402Z,9.70
2023-05-06T15:40:44.579Z,9.70
2023-05-06T15:43:22.711Z,9.70
2023-05-06T15:45:52.982Z,9.70
2023-05-06T15:48:22.522Z,9.70
2023-05-06T15:50:51.865Z,9.70
2023-05-06T15:53:22.261Z,9.70
2023-05-06T15:55:56.646Z,9.80
2023-05-06T15:58:32.464Z,9.70
2023-05-06T16:01:02.309Z,9.80
2023-05-06T16:03:32.412Z,9.70
2023-05-06T16:06:01.966Z,9.70
2023-05-06T16:08:31.465Z,9.70
2023-05-06T16:11:00.856Z,9.70
2023-05-06T16:13:30.223Z,9.70
2023-05-06T16:16:01.231Z,9.70
2023-05-06T16:18:31.123Z,9.60
2023-05-06T16:21:00.487Z,9.70
2023-05-06T16:23:29.931Z,9.70
2023-05-06T16:26:03.151Z,9.60
2023-05-06T16:28:33.002Z,9.60
2023-05-06T16:31:04.061Z,9.60
2023-05-06T16:33:33.450Z,9.60
2023-05-06T16:36:02.874Z,9.60
2023-05-06T16:38:32.345Z,9.60
2023-05-06T16:41:01.824Z,9.50
2023-05-06T16:43:31.152Z,9.50
2023-05-06T16:46:01.531Z,9.50
2023-05-06T16:48:30.957Z,9.50
2023-05-06T16:51:01.542Z,9.50
2023-05-06T16:53:31.105Z,9.50
2023-05-06T16:56:03.413Z,9.50
2023-05-06T16:58:33.221Z,9.50
2023-05-06T17:01:04.032Z,9.50
2023-05-06T17:03:34.096Z,9.40
2023-05-06T17:06:03.511Z,9.30
2023-05-06T17:08:36.132Z,9.30
2023-05-06T17:11:08.150Z,9.00
2023-05-06T17:13:37.623Z,9.00
2023-05-06T17:16:07.695Z,9.00
2023-05-06T17:18:37.814Z,9.00
2023-05-06T17:21:09.357Z,9.00
2023-05-06T17:23:39.255Z,9.00
2023-05-06T17:26:10.385Z,8.90
2023-05-06T17:28:41.213Z,8.90
2023-05-06T17:31:10.852Z,8.90
2023-05-06T17:33:41.294Z,8.90
2023-05-06T17:36:11.739Z,8.90
2023-05-06T17:38:41.472Z,9.00
2023-05-06T17:41:10.869Z,8.90
2023-05-06T17:43:40.263Z,8.90
2023-05-06T17:46:10.971Z,8.80
2023-05-06T17:48:40.333Z,8.90
2023-05-06T17:51:09.728Z,8.90
2023-05-06T17:53:40.805Z,8.90
2023-05-06T17:56:10.550Z,8.90
2023-05-06T17:58:39.902Z,9.00
2023-05-06T18:01:10.543Z,8.90
2023-05-06T18:03:42.086Z,9.00
2023-05-06T18:06:11.917Z,9.00
2023-05-06T18:08:42.331Z,9.00
2023-05-06T18:11:13.521Z,9.00
2023-05-06T18:13:43.028Z,9.00
2023-05-06T18:16:12.462Z,9.00
2023-05-06T18:18:43.069Z,8.90
2023-05-06T18:21:12.471Z,8.90
2023-05-06T18:23:41.836Z,9.00
2023-05-06T18:26:12.694Z,9.00
2023-05-06T18:28:46.083Z,9.00
2023-05-06T18:31:15.488Z,9.00
2023-05-06T18:33:44.914Z,9.00
2023-05-06T18:36:16.024Z,9.00
2023-05-06T18:38:45.357Z,9.00
2023-05-06T18:41:14.728Z,9.00
2023-05-06T18:43:44.260Z,9.00
2023-05-06T18:46:13.664Z,9.00
2023-05-06T18:48:43.043Z,9.00
2023-05-06T18:51:15.943Z,9.00
2023-05-06T18:53:45.679Z,9.00
2023-05-06T18:56:15.442Z,9.00
2023-05-06T18:58:44.949Z,9.00
2023-05-06T19:01:14.411Z,9.00
2023-05-06T19:03:43.841Z,9.00
2023-05-06T19:06:14.021Z,8.90
2023-05-06T19:08:43.787Z,8.90
2023-05-06T19:11:17.816Z,8.80
2023-05-06T19:13:47.740Z,8.90
2023-05-06T19:16:17.224Z,8.90
2023-05-06T19:18:46.747Z,8.90
2023-05-06T19:21:17.125Z,8.80
2023-05-06T19:23:47.201Z,8.80
2023-05-06T19:26:16.671Z,8.80
2023-05-06T19:28:46.113Z,8.70
2023-05-06T19:31:15.543Z,8.60
2023-05-06T19:33:45.406Z,8.60
2023-05-06T19:36:15.148Z,8.50
2023-05-06T19:38:44.733Z,8.50
2023-05-06T19:41:14.744Z,8.40
2023-05-06T19:43:44.985Z,8.30
2023-05-06T19:46:14.791Z,8.30
2023-05-06T19:48:44.134Z,8.20
2023-05-06T19:51:13.662Z,8.20
2023-05-06T19:53:43.044Z,8.20
2023-05-06T19:56:13.626Z,8.20
2023-05-06T19:58:43.005Z,8.10
2023-05-06T20:01:12.458Z,8.10
2023-05-06T20:03:42.012Z,8.10
2023-05-06T20:06:11.512Z,8.10
2023-05-06T20:08:40.856Z,8.10
2023-05-06T20:11:10.773Z,8.00
2023-05-06T20:13:40.153Z,7.90
2023-05-06T20:16:09.641Z,7.80
2023-05-06T20:18:39.147Z,7.80
2023-05-06T20:21:08.500Z,7.70
2023-05-06T20:23:37.961Z,7.60
2023-05-06T20:26:07.396Z,7.60
2023-05-06T20:28:39.352Z,7.60
2023-05-06T20:31:08.858Z,7.50
2023-05-06T20:33:38.272Z,7.50
2023-05-06T20:36:08.154Z,7.40
2023-05-06T20:38:38.741Z,7.40
2023-05-06T20:41:08.103Z,7.40
2023-05-06T20:43:37.507Z,7.30
2023-05-06T20:46:07.395Z,7.30
2023-05-06T20:48:37.224Z,7.30
2023-05-06T20:51:07.737Z,7.30
2023-05-06T20:53:37.164Z,7.20
2023-05-06T20:56:10.361Z,7.20
2023-05-06T20:58:39.712Z,7.20
2023-05-06T21:01:10.393Z,7.20
2023-05-06T21:03:39.882Z,7.20
2023-05-06T21:06:09.401Z,7.10
2023-05-06T21:08:39.136Z,7.10
2023-05-06T21:11:09.495Z,7.10
2023-05-06T21:13:39.417Z,7.10
2023-05-06T21:16:09.235Z,7.10
2023-05-06T21:18:39.184Z,7.00
2023-05-06T21:21:08.738Z,7.00
2023-05-06T21:23:39.264Z,7.00
2023-05-06T21:26:08.664Z,7.00
2023-05-06T21:28:38.742Z,7.00
2023-05-06T21:31:08.410Z,7.00
2023-05-06T21:33:39.132Z,7.00
2023-05-06T21:36:08.728Z,7.00
2023-05-06T21:38:38.142Z,6.90
2023-05-06T21:41:08.816Z,6.90
2023-05-06T21:43:39.229Z,6.90
2023-05-06T21:46:09.645Z,6.80
2023-05-06T21:48:39.118Z,6.90
2023-05-06T21:51:08.505Z,6.80
2023-05-06T21:53:37.844Z,6.80
2023-05-06T21:56:07.338Z,6.80
2023-05-06T21:58:36.723Z,6.80
2023-05-06T22:01:06.070Z,6.80
2023-05-06T22:03:35.520Z,6.80
2023-05-06T22:06:07.825Z,6.80
2023-05-06T22:08:37.232Z,6.80
2023-05-06T22:11:06.583Z,6.80
2023-05-06T22:13:36.036Z,6.80
2023-05-06T22:16:05.969Z,6.80
2023-05-06T22:18:37.485Z,6.90
2023-05-06T22:21:07.996Z,6.80
2023-05-06T22:23:37.535Z,6.90
2023-05-06T22:26:08.034Z,7.10
2023-05-06T22:28:38.589Z,7.10
2023-05-06T22:31:08.069Z,7.10
2023-05-06T22:33:37.450Z,7.10
2023-05-06T22:36:06.973Z,7.20
2023-05-06T22:38:36.329Z,7.30
2023-05-06T22:41:05.871Z,7.30
2023-05-06T22:43:35.200Z,7.40
2023-05-06T22:46:04.560Z,7.40
2023-05-06T22:48:34.191Z,7.40
2023-05-06T22:51:04.872Z,7.50
2023-05-06T22:53:35.576Z,7.50
2023-05-06T22:56:04.954Z,7.50
2023-05-06T22:58:35.348Z,7.50
2023-05-06T23:01:04.815Z,7.60
2023-05-06T23:03:34.237Z,7.60
2023-05-06T23:06:05.397Z,7.60
2023-05-06T23:08:34.805Z,7.80
2023-05-06T23:11:04.263Z,7.80
2023-05-06T23:13:37.983Z,7.90
2023-05-06T23:16:09.297Z,7.90
2023-05-06T23:18:39.139Z,8.00
2023-05-06T23:21:09.059Z,8.10
2023-05-06T23:23:39.472Z,8.20
2023-05-06T23:26:09.326Z,8.20
2023-05-06T23:28:39.893Z,8.30
2023-05-06T23:31:09.386Z,8.50
2023-05-06T23:33:39.204Z,8.60
2023-05-06T23:36:08.773Z,8.80
2023-05-06T23:38:38.136Z,9.00
2023-05-06T23:41:08.176Z,9.10
2023-05-06T23:43:37.516Z,9.30
2023-05-06T23:46:07.161Z,9.40
2023-05-06T23:48:37.787Z,9.60
2023-05-06T23:51:07.380Z,9.70
2023-05-06T23:53:37.856Z,9.80
2023-05-06T23:56:08.438Z,10.10
2023-05-06T23:58:37.814Z,10.10
